createdAt,value
2024-01-25T00:00:53.871Z,98483.13
2024-01-25T00:03:22.197Z,98488.75
2024-01-25T00:05:50.459Z,98497.38
2024-01-25T00:08:18.995Z,98498.16
2024-01-25T00:10:47.300Z,98515.38
2024-01-25T00:13:20.698Z,98525.00
2024-01-25T00:15:50.300Z,98533.38
2024-01-25T00:18:20.659Z,98543.59
2024-01-25T00:20:52.173Z,98542.25
2024-01-25T00:23:23.156Z,98549.19
2024-01-25T00:25:51.656Z,98545.69
2024-01-25T00:28:20.043Z,98552.94
2024-01-25T00:30:49.683Z,98559.38
2024-01-25T00:33:18.107Z,98563.44
2024-01-25T00:35:48.193Z,98577.13
2024-01-25T00:38:16.978Z,98589.22
2024-01-25T00:40:45.726Z,98593.00
2024-01-25T00:43:14.601Z,98604.00
2024-01-25T00:45:45.888Z,98615.88
2024-01-25T00:48:16.633Z,98628.81
2024-01-25T00:50:45.430Z,98625.56
2024-01-25T00:53:16.961Z,98628.25
2024-01-25T00:55:48.174Z,98644.19
2024-01-25T00:58:17.110Z,98646.06
2024-01-25T01:00:48.762Z,98667.00
2024-01-25T01:03:21.516Z,98666.72
2024-01-25T01:05:53.393Z,98671.88
2024-01-25T01:08:22.569Z,98683.94
2024-01-25T01:10:50.776Z,98688.25
2024-01-25T01:13:22.076Z,98699.84
2024-01-25T01:15:50.323Z,98700.31
2024-01-25T01:18:20.709Z,98709.50
2024-01-25T01:20:50.654Z,98718.66
2024-01-25T01:23:18.913Z,98729.44
2024-01-25T01:25:47.378Z,98729.41
2024-01-25T01:28:16.104Z,98731.50
2024-01-25T01:30:45.296Z,98744.38
2024-01-25T01:33:13.756Z,98755.06
2024-01-25T01:35:43.783Z,98760.22
2024-01-25T01:38:12.717Z,98776.50
2024-01-25T01:40:40.958Z,98789.59
2024-01-25T01:43:09.478Z,98797.09
2024-01-25T01:45:38.409Z,98807.31
2024-01-25T01:48:06.940Z,98808.09
2024-01-25T01:50:35.537Z,98818.53
2024-01-25T01:53:06.853Z,98825.22
2024-01-25T01:55:35.296Z,98824.09
2024-01-25T01:58:04.299Z,98832.16
2024-01-25T02:00:34.732Z,98844.44
2024-01-25T02:03:04.504Z,98845.75
2024-01-25T02:05:32.801Z,98859.47
2024-01-25T02:08:01.021Z,98855.97
2024-01-25T02:10:31.641Z,98858.09
2024-01-25T02:12:59.857Z,98873.97
2024-01-25T02:15:28.058Z,98878.78
2024-01-25T02:17:56.424Z,98890.84
2024-01-25T02:20:24.981Z,98889.69
2024-01-25T02:22:54.691Z,98891.25
2024-01-25T02:25:23.531Z,98899.19
2024-01-25T02:27:52.353Z,98900.72
2024-01-25T02:30:20.708Z,98907.41
2024-01-25T02:32:49.213Z,98910.00
2024-01-25T02:35:18.481Z,98927.16
2024-01-25T02:37:46.747Z,98930.34
2024-01-25T02:40:17.270Z,98935.69
2024-01-25T02:42:45.662Z,98945.63
2024-01-25T02:45:14.317Z,98953.38
2024-01-25T02:47:42.771Z,98963.84
2024-01-25T02:50:14.372Z,98968.84
2024-01-25T02:52:42.663Z,98975.03
2024-01-25T02:55:11.239Z,98975.28
2024-01-25T02:57:40.923Z,98971.03
2024-01-25T03:00:10.799Z,98989.59
2024-01-25T03:02:39.039Z,98983.41
2024-01-25T03:05:07.541Z,98993.34
2024-01-25T03:07:35.738Z,99004.09
2024-01-25T03:10:04.082Z,99021.00
2024-01-25T03:12:32.408Z,99024.88
2024-01-25T03:15:02.710Z,99032.13
2024-01-25T03:17:31.637Z,99030.56
2024-01-25T03:20:00.026Z,99034.06
2024-01-25T03:22:28.344Z,99049.38
2024-01-25T03:24:56.649Z,99051.00
2024-01-25T03:27:24.898Z,99058.00
2024-01-25T03:29:53.107Z,99067.13
2024-01-25T03:32:22.793Z,99069.09
2024-01-25T03:34:51.193Z,99072.59
2024-01-25T03:37:20.644Z,99084.97
2024-01-25T03:39:49.240Z,99088.97
2024-01-25T03:42:17.470Z,99092.91
2024-01-25T03:44:46.124Z,99098.88
2024-01-25T03:47:14.331Z,99102.97
2024-01-25T03:49:44.079Z,99108.56
2024-01-25T03:52:12.334Z,99108.34
2024-01-25T03:54:40.820Z,99115.22
2024-01-25T03:57:09.171Z,99122.91
2024-01-25T03:59:37.359Z,99126.91
2024-01-25T04:02:05.985Z,99132.19
2024-01-25T04:04:34.346Z,99144.06
2024-01-25T04:07:04.048Z,99152.63
2024-01-25T04:09:32.326Z,99150.50
2024-01-25T04:12:01.665Z,99154.25
2024-01-25T04:14:29.936Z,99161.72
2024-01-25T04:16:58.214Z,99166.06
2024-01-25T04:19:26.532Z,99175.38
2024-01-25T04:21:54.858Z,99169.91
2024-01-25T04:24:24.536Z,99170.59
2024-01-25T04:26:52.891Z,99182.03
2024-01-25T04:29:21.274Z,99178.78
2024-01-25T04:31:49.642Z,99188.22
2024-01-25T04:34:18.454Z,99198.88
2024-01-25T04:36:46.989Z,99200.72
2024-01-25T04:39:15.510Z,99205.53
2024-01-25T04:41:45.514Z,99210.53
2024-01-25T04:44:13.762Z,99220.47
2024-01-25T04:46:41.982Z,99224.22
2024-01-25T04:49:11.058Z,99227.56
2024-01-25T04:51:40.473Z,99240.09
2024-01-25T04:54:12.603Z,99241.97
2024-01-25T04:56:41.042Z,99250.38
2024-01-25T04:59:10.689Z,99261.47
2024-01-25T05:01:39.916Z,99266.84
2024-01-25T05:04:08.544Z,99269.75
2024-01-25T05:06:37.215Z,99269.41
2024-01-25T05:09:05.489Z,99277.09
2024-01-25T05:11:33.764Z,99274.88
2024-01-25T05:14:01.950Z,99275.59
2024-01-25T05:16:31.736Z,99279.19
2024-01-25T05:19:00.208Z,99282.94
2024-01-25T05:21:28.537Z,99294.47
2024-01-25T05:23:56.690Z,99293.75
2024-01-25T05:26:25.169Z,99298.16
2024-01-25T05:28:53.720Z,99303.06
2024-01-25T05:31:22.018Z,99305.75
2024-01-25T05:33:51.885Z,99316.13
2024-01-25T05:36:21.236Z,99321.94
2024-01-25T05:38:50.446Z,99325.22
2024-01-25T05:41:18.670Z,99321.34
2024-01-25T05:43:47.223Z,99335.22
2024-01-25T05:46:15.447Z,99336.81
2024-01-25T05:48:43.818Z,99338.75
2024-01-25T05:51:15.924Z,99352.28
2024-01-25T05:53:44.209Z,99362.31
2024-01-25T05:56:13.575Z,99369.84
2024-01-25T05:58:41.789Z,99369.09
2024-01-25T06:01:11.401Z,99374.94
2024-01-25T06:03:39.844Z,99382.81
2024-01-25T06:06:09.735Z,99383.25
2024-01-25T06:08:39.710Z,99394.63
2024-01-25T06:11:08.022Z,99393.66
2024-01-25T06:13:36.272Z,99400.22
2024-01-25T06:16:04.886Z,99411.75
2024-01-25T06:18:33.235Z,99411.41
2024-01-25T06:21:01.831Z,99414.72
2024-01-25T06:23:30.033Z,99419.28
2024-01-25T06:26:02.548Z,99422.81
2024-01-25T06:28:30.838Z,99423.88
2024-01-25T06:30:59.388Z,99436.22
2024-01-25T06:33:27.735Z,99452.31
2024-01-25T06:35:56.526Z,99455.56
2024-01-25T06:38:24.687Z,99455.56
2024-01-25T06:40:52.844Z,99473.09
2024-01-25T06:43:22.553Z,99473.25
2024-01-25T06:45:50.833Z,99481.09
2024-01-25T06:48:19.211Z,99486.19
2024-01-25T06:50:47.490Z,99496.22
2024-01-25T06:53:15.745Z,99502.94
2024-01-25T06:55:44.204Z,99501.84
2024-01-25T06:58:12.467Z,99514.63
2024-01-25T07:00:43.880Z,99528.78
2024-01-25T07:03:12.652Z,99530.44
2024-01-25T07:05:41.286Z,99538.41
2024-01-25T07:08:13.899Z,99541.91
2024-01-25T07:10:42.211Z,99545.34
2024-01-25T07:13:10.519Z,99548.88
2024-01-25T07:15:39.372Z,99562.69
2024-01-25T07:18:09.308Z,99555.91
2024-01-25T07:20:38.181Z,99565.03
2024-01-25T07:23:06.361Z,99565.66
2024-01-25T07:25:34.600Z,99570.44
2024-01-25T07:28:02.893Z,99580.13
2024-01-25T07:30:31.104Z,99579.25
2024-01-25T07:32:59.893Z,99589.09
2024-01-25T07:35:29.670Z,99593.56
2024-01-25T07:37:57.924Z,99605.28
2024-01-25T07:40:26.170Z,99599.75
2024-01-25T07:42:54.430Z,99609.84
2024-01-25T07:45:22.676Z,99610.50
2024-01-25T07:47:55.986Z,99609.66
2024-01-25T07:50:30.173Z,99611.94
2024-01-25T07:52:58.441Z,99616.25
2024-01-25T07:55:26.664Z,99631.63
2024-01-25T07:57:55.038Z,99634.75
2024-01-25T08:00:23.728Z,99646.69
2024-01-25T08:02:51.943Z,99643.59
2024-01-25T08:05:20.573Z,99652.81
2024-01-25T08:07:50.711Z,99652.78
2024-01-25T08:10:20.037Z,99656.88
2024-01-25T08:12:55.528Z,99663.44
2024-01-25T08:15:27.673Z,99672.47
2024-01-25T08:17:55.996Z,99681.78
2024-01-25T08:20:24.394Z,99689.78
2024-01-25T08:22:54.082Z,99696.22
2024-01-25T08:25:22.350Z,99707.19
2024-01-25T08:27:50.668Z,99714.34
2024-01-25T08:30:19.398Z,99716.59
2024-01-25T08:32:47.761Z,99715.25
2024-01-25T08:35:16.011Z,99734.28
2024-01-25T08:37:44.360Z,99732.44
2024-01-25T08:40:15.791Z,99737.34
2024-01-25T08:42:44.100Z,99740.91
2024-01-25T08:45:16.944Z,99748.53
2024-01-25T08:47:47.619Z,99748.78
2024-01-25T08:50:17.526Z,99768.22
2024-01-25T08:52:45.944Z,99762.84
2024-01-25T08:55:15.777Z,99764.34
2024-01-25T08:57:43.991Z,99764.63
2024-01-25T09:00:13.051Z,99762.75
2024-01-25T09:02:41.550Z,99765.84
2024-01-25T09:05:11.009Z,99777.41
2024-01-25T09:07:40.252Z,99776.19
2024-01-25T09:10:12.588Z,99780.28
2024-01-25T09:12:42.913Z,99784.59
2024-01-25T09:15:12.112Z,99788.72
2024-01-25T09:17:41.424Z,99786.84
2024-01-25T09:20:12.301Z,99804.94
2024-01-25T09:22:40.846Z,99808.22
2024-01-25T09:25:10.462Z,99811.09
2024-01-25T09:27:39.775Z,99806.91
2024-01-25T09:30:11.221Z,99811.00
2024-01-25T09:32:39.638Z,99816.19
2024-01-25T09:35:09.385Z,99821.94
2024-01-25T09:37:38.357Z,99817.97
2024-01-25T09:40:08.220Z,99826.22
2024-01-25T09:42:37.432Z,99837.78
2024-01-25T09:45:11.948Z,99845.19
2024-01-25T09:47:40.274Z,99846.84
2024-01-25T09:50:10.697Z,99836.09
2024-01-25T09:52:40.551Z,99860.06
2024-01-25T09:55:10.337Z,99862.28
2024-01-25T09:57:39.362Z,99864.78
2024-01-25T10:00:13.346Z,99869.09
2024-01-25T10:02:41.705Z,99875.72
2024-01-25T10:05:10.662Z,99877.00
2024-01-25T10:07:40.776Z,99879.69
2024-01-25T10:10:11.556Z,99873.72
2024-01-25T10:12:39.236Z,99875.81
2024-01-25T10:15:09.964Z,99869.22
2024-01-25T10:20:12.544Z,99874.91
2024-01-25T10:22:42.036Z,99882.75
2024-01-25T10:25:15.681Z,99881.91
2024-01-25T10:27:44.393Z,99885.28
2024-01-25T10:30:16.715Z,99882.81
2024-01-25T10:32:45.453Z,99900.59
2024-01-25T10:35:15.872Z,99916.72
2024-01-25T10:37:46.818Z,99920.44
2024-01-25T10:40:17.434Z,99924.78
2024-01-25T10:42:46.429Z,99931.56
2024-01-25T10:45:16.476Z,99923.66
2024-01-25T10:47:45.956Z,99922.16
2024-01-25T10:50:15.346Z,99920.81
2024-01-25T10:52:45.770Z,99920.56
2024-01-25T10:55:15.854Z,99922.97
2024-01-25T10:57:46.353Z,99929.88
2024-01-25T11:00:18.321Z,99939.28
2024-01-25T11:02:48.247Z,99928.88
2024-01-25T11:05:18.753Z,99938.41
2024-01-25T11:07:48.334Z,99945.72
2024-01-25T11:10:19.184Z,99953.19
2024-01-25T11:12:57.547Z,99957.06
2024-01-25T11:15:33.342Z,99960.44
2024-01-25T11:18:03.253Z,99962.16
2024-01-25T11:20:33.221Z,99959.91
2024-01-25T11:23:03.713Z,99967.22
2024-01-25T11:25:33.256Z,99964.28
2024-01-25T11:28:02.197Z,99970.09
2024-01-25T11:30:32.433Z,99970.50
2024-01-25T11:33:00.762Z,99977.50
2024-01-25T11:35:29.327Z,99977.97
2024-01-25T11:37:58.812Z,99990.78
2024-01-25T11:40:27.220Z,99994.94
2024-01-25T11:42:55.697Z,99991.91
2024-01-25T11:45:23.970Z,99989.97
2024-01-25T11:47:54.696Z,99991.19
2024-01-25T11:50:24.277Z,99996.34
2024-01-25T11:52:52.939Z,100006.00
2024-01-25T11:55:21.297Z,100010.78
2024-01-25T11:57:49.743Z,100018.84
2024-01-25T12:00:19.287Z,100018.84
2024-01-25T12:02:47.582Z,100023.94
2024-01-25T12:05:17.369Z,100022.44
2024-01-25T12:07:45.761Z,100013.94
2024-01-25T12:10:19.132Z,100025.91
2024-01-25T12:12:47.741Z,100031.50
2024-01-25T12:15:16.230Z,100031.81
2024-01-25T12:17:44.448Z,100021.69
2024-01-25T12:20:14.540Z,100030.44
2024-01-25T12:22:45.422Z,100025.97
2024-01-25T12:25:14.804Z,100027.03
2024-01-25T12:27:43.764Z,100035.06
2024-01-25T12:30:12.952Z,100041.56
2024-01-25T12:32:41.326Z,100042.75
2024-01-25T12:35:13.048Z,100051.81
2024-01-25T12:37:41.326Z,100058.22
2024-01-25T12:40:11.798Z,100069.13
2024-01-25T12:42:40.340Z,100063.00
2024-01-25T12:45:09.477Z,100068.44
2024-01-25T12:47:38.299Z,100075.91
2024-01-25T12:50:07.356Z,100063.59
2024-01-25T12:52:35.636Z,100071.94
2024-01-25T12:55:04.444Z,100076.53
2024-01-25T12:57:35.605Z,100078.59
2024-01-25T13:00:05.048Z,100082.75
2024-01-25T13:02:33.578Z,100090.66
2024-01-25T13:05:02.373Z,100085.69
2024-01-25T13:07:34.039Z,100085.09
2024-01-25T13:10:02.271Z,100094.44
2024-01-25T13:12:30.502Z,100100.03
2024-01-25T13:15:00.161Z,100104.75
2024-01-25T13:17:29.495Z,100108.28
2024-01-25T13:19:59.636Z,100110.34
2024-01-25T13:22:28.473Z,100121.88
2024-01-25T13:24:56.736Z,100126.59
2024-01-25T13:27:24.965Z,100136.28
2024-01-25T13:29:53.171Z,100132.75
2024-01-25T13:32:22.932Z,100141.59
2024-01-25T13:34:51.276Z,100144.06
2024-01-25T13:37:19.724Z,100148.81
2024-01-25T13:39:47.996Z,100148.16
2024-01-25T13:42:16.312Z,100160.97
2024-01-25T13:44:45.909Z,100161.16
2024-01-25T13:47:14.216Z,100164.25
2024-01-25T13:49:44.066Z,100165.53
2024-01-25T13:52:24.884Z,100171.16
2024-01-25T13:54:53.618Z,100167.06
2024-01-25T13:57:28.921Z,100177.88
2024-01-25T13:59:59.452Z,100176.69
2024-01-25T14:02:35.298Z,100184.56
2024-01-25T14:05:21.019Z,100186.06
2024-01-25T14:08:06.241Z,100185.28
2024-01-25T14:10:37.594Z,100179.31
2024-01-25T14:13:06.465Z,100188.84
2024-01-25T14:15:34.776Z,100191.75
2024-01-25T14:18:06.136Z,100191.78
2024-01-25T14:20:41.207Z,100193.84
2024-01-25T14:23:09.551Z,100194.25
2024-01-25T14:25:38.262Z,100199.22
2024-01-25T14:28:06.886Z,100202.72
2024-01-25T14:30:35.213Z,100209.75
2024-01-25T14:33:05.058Z,100207.91
2024-01-25T14:35:35.185Z,100214.72
2024-01-25T14:38:03.556Z,100223.59
2024-01-25T14:40:48.981Z,100219.47
2024-01-25T14:43:20.226Z,100226.03
2024-01-25T14:45:51.296Z,100228.47
2024-01-25T14:48:19.646Z,100231.16
2024-01-25T14:50:49.298Z,100223.13
2024-01-25T14:53:19.761Z,100239.22
2024-01-25T14:55:48.194Z,100231.97
2024-01-25T14:58:23.589Z,100231.34
2024-01-25T15:00:53.215Z,100235.03
2024-01-25T15:03:22.018Z,100234.59
2024-01-25T15:05:53.201Z,100245.72
2024-01-25T15:08:21.950Z,100238.47
2024-01-25T15:10:58.711Z,100251.66
2024-01-25T15:14:08.714Z,100250.41
2024-01-25T15:16:56.454Z,100252.84
2024-01-25T15:19:41.460Z,100259.59
2024-01-25T15:22:17.497Z,100258.31
2024-01-25T15:24:47.088Z,100258.84
2024-01-25T15:27:15.509Z,100272.44
2024-01-25T15:29:43.768Z,100269.34
2024-01-25T15:32:11.995Z,100271.00
2024-01-25T15:34:41.261Z,100270.75
2024-01-25T15:37:11.061Z,100271.94
2024-01-25T15:39:39.288Z,100269.00
2024-01-25T15:42:07.600Z,100265.00
2024-01-25T15:44:36.317Z,100269.53
2024-01-25T15:47:04.548Z,100276.53
2024-01-25T15:49:32.750Z,100286.00
2024-01-25T15:52:02.015Z,100288.81
2024-01-25T15:54:32.205Z,100297.41
2024-01-25T15:57:05.777Z,100298.63
2024-01-25T15:59:34.253Z,100304.19
2024-01-25T16:02:02.426Z,100303.16
2024-01-25T16:04:30.783Z,100312.22
2024-01-25T16:06:59.069Z,100314.38
2024-01-25T16:09:27.261Z,100310.22
2024-01-25T16:11:56.918Z,100311.66
2024-01-25T16:14:25.144Z,100316.94
2024-01-25T16:16:53.392Z,100321.81
2024-01-25T16:19:21.749Z,100321.38
2024-01-25T16:21:51.507Z,100335.00
2024-01-25T16:24:20.358Z,100330.50
2024-01-25T16:26:48.710Z,100338.75
2024-01-25T16:29:18.319Z,100344.47
2024-01-25T16:31:46.546Z,100351.28
2024-01-25T16:34:15.966Z,100348.66
2024-01-25T16:36:44.353Z,100354.72
2024-01-25T16:39:12.840Z,100358.91
2024-01-25T16:41:41.148Z,100361.84
2024-01-25T16:44:09.585Z,100366.41
2024-01-25T16:46:39.158Z,100365.84
2024-01-25T16:49:09.837Z,100369.22
2024-01-25T16:51:38.732Z,100376.63
2024-01-25T16:54:07.113Z,100373.00
2024-01-25T16:56:35.322Z,100373.81
2024-01-25T16:59:04.420Z,100380.84
2024-01-25T17:01:33.016Z,100383.16
2024-01-25T17:04:04.419Z,100386.69
2024-01-25T17:06:32.728Z,100382.63
2024-01-25T17:09:01.349Z,100382.56
2024-01-25T17:11:30.358Z,100387.78
2024-01-25T17:13:59.262Z,100388.66
2024-01-25T17:16:27.961Z,100397.53
2024-01-25T17:19:00.119Z,100400.84
2024-01-25T17:21:30.736Z,100411.81
2024-01-25T17:23:59.733Z,100410.97
2024-01-25T17:26:27.711Z,100394.97
2024-01-25T17:28:56.639Z,100399.16
2024-01-25T17:31:24.899Z,100407.06
2024-01-25T17:33:53.593Z,100406.03
2024-01-25T17:36:21.988Z,100402.31
2024-01-25T17:38:51.664Z,100401.28
2024-01-25T17:41:21.828Z,100406.91
2024-01-25T17:43:50.393Z,100402.94
2024-01-25T17:46:18.807Z,100409.59
2024-01-25T17:48:47.576Z,100407.47
2024-01-25T17:51:17.278Z,100412.91
2024-01-25T17:53:45.564Z,100410.47
2024-01-25T17:56:15.173Z,100414.81
2024-01-25T17:58:43.881Z,100419.75
2024-01-25T18:01:12.203Z,100415.03
2024-01-25T18:03:40.607Z,100415.47
2024-01-25T18:06:08.895Z,100421.47
2024-01-25T18:08:37.108Z,100414.25
2024-01-25T18:11:05.673Z,100421.09
2024-01-25T18:13:35.622Z,100420.53
2024-01-25T18:16:06.354Z,100422.81
2024-01-25T18:18:34.857Z,100421.00
2024-01-25T18:21:04.720Z,100428.00
2024-01-25T18:23:33.974Z,100442.25
2024-01-25T18:26:03.273Z,100433.63
2024-01-25T18:28:31.487Z,100438.16
2024-01-25T18:31:01.271Z,100441.47
2024-01-25T18:33:29.752Z,100436.09
2024-01-25T18:35:58.423Z,100441.06
2024-01-25T18:38:26.647Z,100450.13
2024-01-25T18:41:20.565Z,100446.88
2024-01-25T18:43:49.512Z,100436.72
2024-01-25T18:46:33.725Z,100441.88
2024-01-25T18:49:04.764Z,100441.47
2024-01-25T18:51:33.309Z,100437.34
2024-01-25T18:54:07.829Z,100443.28
2024-01-25T18:56:36.652Z,100455.03
2024-01-25T18:59:05.449Z,100445.09
2024-01-25T19:01:41.441Z,100454.16
2024-01-25T19:04:10.886Z,100449.25
2024-01-25T19:06:44.970Z,100448.81
2024-01-25T19:09:13.912Z,100462.00
2024-01-25T19:11:42.212Z,100459.56
2024-01-25T19:14:10.426Z,100458.53
2024-01-25T19:16:40.104Z,100463.91
2024-01-25T19:19:08.409Z,100463.66
2024-01-25T19:27:50.309Z,100466.16
2024-01-25T19:30:28.087Z,100454.22
2024-01-25T19:33:11.329Z,100458.28
2024-01-25T19:35:54.549Z,100450.44
2024-01-25T19:38:28.572Z,100455.81
2024-01-25T19:41:04.684Z,100466.16
2024-01-25T19:43:35.629Z,100463.72
2024-01-25T19:46:11.144Z,100458.78
2024-01-25T19:48:47.830Z,100465.41
2024-01-25T19:51:25.442Z,100452.59
2024-01-25T19:54:14.411Z,100463.13
2024-01-25T19:56:48.121Z,100463.34
2024-01-25T19:59:27.045Z,100462.94
2024-01-25T20:01:58.551Z,100468.53
2024-01-25T20:04:33.642Z,100468.97
2024-01-25T20:07:01.975Z,100468.75
2024-01-25T20:09:30.366Z,100476.19
2024-01-25T20:12:06.452Z,100469.16
2024-01-25T20:14:34.728Z,100464.19
2024-01-25T20:17:02.981Z,100462.16
2024-01-25T20:19:32.676Z,100460.66
2024-01-25T20:22:01.837Z,100456.31
2024-01-25T20:24:30.180Z,100451.31
2024-01-25T20:26:58.401Z,100450.91
2024-01-25T20:29:26.581Z,100448.19
2024-01-25T20:31:56.434Z,100447.56
2024-01-25T20:34:24.826Z,100449.63
2024-01-25T20:36:54.517Z,100451.06
2024-01-25T20:39:22.846Z,100448.75
2024-01-25T20:41:56.236Z,100459.06
2024-01-25T20:44:24.805Z,100467.31
2024-01-25T20:46:55.852Z,100464.81
2024-01-25T20:49:29.993Z,100458.22
2024-01-25T20:52:09.734Z,100462.34
2024-01-25T20:54:48.017Z,100464.00
2024-01-25T20:57:18.419Z,100456.16
2024-01-25T20:59:46.774Z,100448.28
2024-01-25T21:02:15.414Z,100454.88
2024-01-25T21:04:47.535Z,100456.06
2024-01-25T21:07:21.158Z,100445.94
2024-01-25T21:09:51.450Z,100441.59
2024-01-25T21:12:24.643Z,100438.31
2024-01-25T21:15:00.278Z,100433.41
2024-01-25T21:17:37.486Z,100427.44
2024-01-25T21:20:16.485Z,100437.94
2024-01-25T21:22:46.951Z,100435.66
2024-01-25T21:25:48.538Z,100433.84
2024-01-25T21:28:18.227Z,100433.63
2024-01-25T21:30:49.749Z,100423.56
2024-01-25T21:33:36.220Z,100431.84
2024-01-25T21:36:09.725Z,100429.16
2024-01-25T21:38:50.697Z,100431.22
2024-01-25T21:41:56.099Z,100421.50
2024-01-25T21:44:35.836Z,100426.09
2024-01-25T21:47:12.186Z,100429.00
2024-01-25T21:49:59.503Z,100420.75
2024-01-25T21:52:28.039Z,100417.03
2024-01-25T21:54:58.069Z,100416.00
2024-01-25T21:57:29.700Z,100421.09
2024-01-25T22:00:07.213Z,100428.94
2024-01-25T22:02:37.903Z,100428.13
2024-01-25T22:05:09.917Z,100433.47
2024-01-25T22:07:38.156Z,100435.94
2024-01-25T22:10:09.290Z,100445.03
2024-01-25T22:12:39.649Z,100449.94
2024-01-25T22:15:29.275Z,100446.81
2024-01-25T22:18:28.394Z,100432.69
2024-01-25T22:20:56.598Z,100436.63
2024-01-25T22:23:31.190Z,100437.69
2024-01-25T22:26:00.888Z,100427.66
2024-01-25T22:28:33.111Z,100433.88
2024-01-25T22:31:01.497Z,100431.06
2024-01-25T22:33:30.023Z,100435.59
2024-01-25T22:35:58.541Z,100430.44
2024-01-25T22:38:42.266Z,100440.13
2024-01-25T22:41:57.526Z,100427.34
2024-01-25T22:44:26.743Z,100433.72
2024-01-25T22:50:31.644Z,100426.97
2024-01-25T22:53:04.055Z,100430.28
2024-01-25T22:56:07.439Z,100424.50
2024-01-25T22:58:39.005Z,100422.59
2024-01-25T23:01:12.593Z,100423.63
2024-01-25T23:03:43.150Z,100418.25
2024-01-25T23:06:10.943Z,100425.94
2024-01-25T23:08:43.672Z,100417.88
2024-01-25T23:11:17.382Z,100417.06
2024-01-25T23:13:49.680Z,100420.31
2024-01-25T23:16:19.187Z,100421.97
2024-01-25T23:18:47.757Z,100421.97
2024-01-25T23:21:26.216Z,100414.19
2024-01-25T23:23:55.817Z,100420.75
2024-01-25T23:26:24.058Z,100416.63
2024-01-25T23:28:55.052Z,100413.31
2024-01-25T23:31:23.305Z,100416.41
2024-01-25T23:33:51.650Z,100414.97
2024-01-25T23:36:19.917Z,100411.44
2024-01-25T23:38:48.620Z,100404.44
2024-01-25T23:41:17.424Z,100408.78
2024-01-25T23:43:46.039Z,100413.72
2024-01-25T23:46:15.661Z,100406.88
2024-01-25T23:48:43.010Z,100403.00
2024-01-25T23:51:11.374Z,100401.72
2024-01-25T23:53:39.875Z,100400.88
2024-01-25T23:56:08.348Z,100398.41
2024-01-25T23:58:36.583Z,100399.03
